sensor_id;sensor_type;location;lat;lon;timestamp;temperature;humidity
5429;DHT22;2737;52.386;9.980;2022-11-11T00:00:33;9.10;99.90
5429;DHT22;2737;52.386;9.980;2022-11-11T00:03:03;9.10;99.90
5429;DHT22;2737;52.386;9.980;2022-11-11T00:05:32;9.00;99.90
5429;DHT22;2737;52.386;9.980;2022-11-11T00:08:00;9.00;99.90
5429;DHT22;2737;52.386;9.980;2022-11-11T00:10:28;9.00;99.90
5429;DHT22;2737;52.386;9.980;2022-11-11T00:12:58;9.00;99.90
5429;DHT22;2737;52.386;9.980;2022-11-11T00:15:26;9.00;99.90
5429;DHT22;2737;52.386;9.980;2022-11-11T00:17:53;9.00;99.90
5429;DHT22;2737;52.386;9.980;2022-11-11T00:20:39;9.00;99.90
5429;DHT22;2737;52.386;9.980;2022-11-11T00:23:25;8.90;99.90
5429;DHT22;2737;52.386;9.980;2022-11-11T00:26:21;8.90;99.90
5429;DHT22;2737;52.386;9.980;2022-11-11T00:28:48;8.90;99.90
5429;DHT22;2737;52.386;9.980;2022-11-11T00:31:15;8.80;99.90
5429;DHT22;2737;52.386;9.980;2022-11-11T00:33:42;8.80;99.90
5429;DHT22;2737;52.386;9.980;2022-11-11T00:36:10;8.80;99.90
5429;DHT22;2737;52.386;9.980;2022-11-11T00:38:36;8.70;99.90
5429;DHT22;2737;52.386;9.980;2022-11-11T00:41:13;8.60;99.90
5429;DHT22;2737;52.386;9.980;2022-11-11T00:43:41;8.70;99.90
5429;DHT22;2737;52.386;9.980;2022-11-11T00:46:09;8.60;99.90
5429;DHT22;2737;52.386;9.980;2022-11-11T00:48:53;8.60;99.90
5429;DHT22;2737;52.386;9.980;2022-11-11T00:51:40;8.60;99.90
5429;DHT22;2737;52.386;9.980;2022-11-11T00:54:07;8.60;99.90
5429;DHT22;2737;52.386;9.980;2022-11-11T00:56:34;8.60;99.90
5429;DHT22;2737;52.386;9.980;2022-11-11T00:59:02;8.50;99.90
5429;DHT22;2737;52.386;9.980;2022-11-11T01:01:31;8.50;99.90
5429;DHT22;2737;52.386;9.980;2022-11-11T01:03:59;8.50;99.90
5429;DHT22;2737;52.386;9.980;2022-11-11T01:06:26;8.50;99.90
5429;DHT22;2737;52.386;9.980;2022-11-11T01:08:54;8.50;99.90
5429;DHT22;2737;52.386;9.980;2022-11-11T01:11:22;8.50;99.90
5429;DHT22;2737;52.386;9.980;2022-11-11T01:13:50;8.60;99.90
5429;DHT22;2737;52.386;9.980;2022-11-11T01:16:20;8.60;99.90
5429;DHT22;2737;52.386;9.980;2022-11-11T01:18:48;8.50;99.90
5429;DHT22;2737;52.386;9.980;2022-11-11T01:21:17;8.50;99.90
5429;DHT22;2737;52.386;9.980;2022-11-11T01:23:45;8.50;99.90
5429;DHT22;2737;52.386;9.980;2022-11-11T01:26:16;8.50;99.90
5429;DHT22;2737;52.386;9.980;2022-11-11T01:28:43;8.50;99.90
5429;DHT22;2737;52.386;9.980;2022-11-11T01:31:11;8.40;99.90
5429;DHT22;2737;52.386;9.980;2022-11-11T01:33:39;8.40;99.90
5429;DHT22;2737;52.386;9.980;2022-11-11T01:36:09;8.40;99.90
5429;DHT22;2737;52.386;9.980;2022-11-11T01:38:36;8.40;99.90
5429;DHT22;2737;52.386;9.980;2022-11-11T01:41:05;8.40;99.90
5429;DHT22;2737;52.386;9.980;2022-11-11T01:43:48;8.40;99.90
5429;DHT22;2737;52.386;9.980;2022-11-11T01:46:23;8.40;99.90
5429;DHT22;2737;52.386;9.980;2022-11-11T01:48:54;8.40;99.90
5429;DHT22;2737;52.386;9.980;2022-11-11T01:51:52;8.40;99.90
5429;DHT22;2737;52.386;9.980;2022-11-11T01:54:25;8.30;99.90
5429;DHT22;2737;52.386;9.980;2022-11-11T01:56:58;8.30;99.90
5429;DHT22;2737;52.386;9.980;2022-11-11T01:59:27;8.30;99.90
5429;DHT22;2737;52.386;9.980;2022-11-11T02:01:57;8.30;99.90
5429;DHT22;2737;52.386;9.980;2022-11-11T02:04:24;8.30;99.90
5429;DHT22;2737;52.386;9.980;2022-11-11T02:07:09;8.30;99.90
5429;DHT22;2737;52.386;9.980;2022-11-11T02:09:40;8.20;99.90
5429;DHT22;2737;52.386;9.980;2022-11-11T02:12:09;8.20;99.90
5429;DHT22;2737;52.386;9.980;2022-11-11T02:14:58;8.10;99.90
5429;DHT22;2737;52.386;9.980;2022-11-11T02:17:29;8.10;99.90
5429;DHT22;2737;52.386;9.980;2022-11-11T02:19:57;8.10;99.90
5429;DHT22;2737;52.386;9.980;2022-11-11T02:22:32;8.10;99.90
5429;DHT22;2737;52.386;9.980;2022-11-11T02:25:03;8.10;99.90
5429;DHT22;2737;52.386;9.980;2022-11-11T02:27:35;8.10;99.90
5429;DHT22;2737;52.386;9.980;2022-11-11T02:30:05;8.10;99.90
5429;DHT22;2737;52.386;9.980;2022-11-11T02:32:41;8.10;99.90
5429;DHT22;2737;52.386;9.980;2022-11-11T02:35:12;8.00;99.90
5429;DHT22;2737;52.386;9.980;2022-11-11T02:37:42;8.00;99.90
5429;DHT22;2737;52.386;9.980;2022-11-11T02:40:14;8.00;99.90
5429;DHT22;2737;52.386;9.980;2022-11-11T02:42:42;8.00;99.90
5429;DHT22;2737;52.386;9.980;2022-11-11T02:45:09;8.00;99.90
5429;DHT22;2737;52.386;9.980;2022-11-11T02:47:36;8.00;99.90
5429;DHT22;2737;52.386;9.980;2022-11-11T02:50:05;8.00;99.90
5429;DHT22;2737;52.386;9.980;2022-11-11T02:52:32;8.00;99.90
5429;DHT22;2737;52.386;9.980;2022-11-11T02:54:59;8.00;99.90
5429;DHT22;2737;52.386;9.980;2022-11-11T02:57:28;8.00;99.90
5429;DHT22;2737;52.386;9.980;2022-11-11T02:59:57;8.10;99.90
5429;DHT22;2737;52.386;9.980;2022-11-11T03:02:25;8.10;99.90
5429;DHT22;2737;52.386;9.980;2022-11-11T03:04:52;8.10;99.90
5429;DHT22;2737;52.386;9.980;2022-11-11T03:07:19;8.10;99.90
5429;DHT22;2737;52.386;9.980;2022-11-11T03:09:46;8.10;99.90
5429;DHT22;2737;52.386;9.980;2022-11-11T03:12:14;8.10;99.90
5429;DHT22;2737;52.386;9.980;2022-11-11T03:14:42;8.10;99.90
5429;DHT22;2737;52.386;9.980;2022-11-11T03:17:09;8.20;99.90
5429;DHT22;2737;52.386;9.980;2022-11-11T03:19:53;8.20;99.90
5429;DHT22;2737;52.386;9.980;2022-11-11T03:22:41;8.20;99.90
5429;DHT22;2737;52.386;9.980;2022-11-11T03:25:07;8.20;99.90
5429;DHT22;2737;52.386;9.980;2022-11-11T03:27:52;8.30;99.90
5429;DHT22;2737;52.386;9.980;2022-11-11T03:30:21;8.30;99.90
5429;DHT22;2737;52.386;9.980;2022-11-11T03:32:48;8.30;99.90
5429;DHT22;2737;52.386;9.980;2022-11-11T03:35:15;8.30;99.90
5429;DHT22;2737;52.386;9.980;2022-11-11T03:37:42;8.30;99.90
5429;DHT22;2737;52.386;9.980;2022-11-11T03:40:26;8.30;99.90
5429;DHT22;2737;52.386;9.980;2022-11-11T03:42:53;8.40;99.90
5429;DHT22;2737;52.386;9.980;2022-11-11T03:45:22;8.40;99.90
5429;DHT22;2737;52.386;9.980;2022-11-11T03:47:49;8.40;99.90
5429;DHT22;2737;52.386;9.980;2022-11-11T03:50:16;8.40;99.90
5429;DHT22;2737;52.386;9.980;2022-11-11T03:52:43;8.40;99.90
5429;DHT22;2737;52.386;9.980;2022-11-11T03:55:10;8.50;99.90
5429;DHT22;2737;52.386;9.980;2022-11-11T03:57:40;8.50;99.90
5429;DHT22;2737;52.386;9.980;2022-11-11T04:00:08;8.50;99.90
5429;DHT22;2737;52.386;9.980;2022-11-11T04:02:37;8.50;99.90
5429;DHT22;2737;52.386;9.980;2022-11-11T04:05:22;8.50;99.90
5429;DHT22;2737;52.386;9.980;2022-11-11T04:08:10;8.50;99.90
5429;DHT22;2737;52.386;9.980;2022-11-11T04:10:55;8.50;99.90
5429;DHT22;2737;52.386;9.980;2022-11-11T04:13:22;8.50;99.90
5429;DHT22;2737;52.386;9.980;2022-11-11T04:16:06;8.50;99.90
5429;DHT22;2737;52.386;9.980;2022-11-11T04:18:36;8.50;99.90
5429;DHT22;2737;52.386;9.980;2022-11-11T04:21:21;8.50;99.90
5429;DHT22;2737;52.386;9.980;2022-11-11T04:24:06;8.50;99.90
5429;DHT22;2737;52.386;9.980;2022-11-11T04:26:47;8.50;99.90
5429;DHT22;2737;52.386;9.980;2022-11-11T04:29:14;8.50;99.90
5429;DHT22;2737;52.386;9.980;2022-11-11T04:31:57;8.50;99.90
5429;DHT22;2737;52.386;9.980;2022-11-11T04:34:46;8.50;99.90
5429;DHT22;2737;52.386;9.980;2022-11-11T04:37:15;8.40;99.90
5429;DHT22;2737;52.386;9.980;2022-11-11T04:39:42;8.40;99.90
5429;DHT22;2737;52.386;9.980;2022-11-11T04:42:27;8.40;99.90
5429;DHT22;2737;52.386;9.980;2022-11-11T04:44:55;8.40;99.90
5429;DHT22;2737;52.386;9.980;2022-11-11T04:47:52;8.40;99.90
5429;DHT22;2737;52.386;9.980;2022-11-11T04:50:20;8.30;99.90
5429;DHT22;2737;52.386;9.980;2022-11-11T04:52:48;8.30;99.90
5429;DHT22;2737;52.386;9.980;2022-11-11T04:55:15;8.30;99.90
5429;DHT22;2737;52.386;9.980;2022-11-11T04:57:59;8.30;99.90
5429;DHT22;2737;52.386;9.980;2022-11-11T05:00:26;8.30;99.90
5429;DHT22;2737;52.386;9.980;2022-11-11T05:02:54;8.20;99.90
5429;DHT22;2737;52.386;9.980;2022-11-11T05:05:40;8.20;99.90
5429;DHT22;2737;52.386;9.980;2022-11-11T05:08:25;8.20;99.90
5429;DHT22;2737;52.386;9.980;2022-11-11T05:11:09;8.10;99.90
5429;DHT22;2737;52.386;9.980;2022-11-11T05:13:36;8.10;99.90
5429;DHT22;2737;52.386;9.980;2022-11-11T05:16:24;8.00;99.90
5429;DHT22;2737;52.386;9.980;2022-11-11T05:19:10;8.00;99.90
5429;DHT22;2737;52.386;9.980;2022-11-11T05:21:58;7.90;99.90
5429;DHT22;2737;52.386;9.980;2022-11-11T05:24:27;7.90;99.90
5429;DHT22;2737;52.386;9.980;2022-11-11T05:27:11;7.90;99.90
5429;DHT22;2737;52.386;9.980;2022-11-11T05:29:38;7.80;99.90
5429;DHT22;2737;52.386;9.980;2022-11-11T05:32:06;7.70;99.90
5429;DHT22;2737;52.386;9.980;2022-11-11T05:34:33;7.70;99.90
5429;DHT22;2737;52.386;9.980;2022-11-11T05:37:02;7.60;99.90
5429;DHT22;2737;52.386;9.980;2022-11-11T05:39:29;7.60;99.90
5429;DHT22;2737;52.386;9.980;2022-11-11T05:41:56;7.60;99.90
5429;DHT22;2737;52.386;9.980;2022-11-11T05:44:23;7.50;99.90
5429;DHT22;2737;52.386;9.980;2022-11-11T05:46:50;7.50;99.90
5429;DHT22;2737;52.386;9.980;2022-11-11T05:49:17;7.50;99.90
5429;DHT22;2737;52.386;9.980;2022-11-11T05:51:45;7.40;99.90
5429;DHT22;2737;52.386;9.980;2022-11-11T05:54:13;7.40;99.90
5429;DHT22;2737;52.386;9.980;2022-11-11T05:56:40;7.40;99.90
5429;DHT22;2737;52.386;9.980;2022-11-11T05:59:08;7.40;99.90
5429;DHT22;2737;52.386;9.980;2022-11-11T06:01:35;7.40;99.90
5429;DHT22;2737;52.386;9.980;2022-11-11T06:04:03;7.40;99.90
5429;DHT22;2737;52.386;9.980;2022-11-11T06:06:31;7.40;99.90
5429;DHT22;2737;52.386;9.980;2022-11-11T06:08:58;7.40;99.90
5429;DHT22;2737;52.386;9.980;2022-11-11T06:11:27;7.40;99.90
5429;DHT22;2737;52.386;9.980;2022-11-11T06:13:54;7.40;99.90
5429;DHT22;2737;52.386;9.980;2022-11-11T06:16:22;7.40;99.90
5429;DHT22;2737;52.386;9.980;2022-11-11T06:18:49;7.40;99.90
5429;DHT22;2737;52.386;9.980;2022-11-11T06:21:17;7.40;99.90
5429;DHT22;2737;52.386;9.980;2022-11-11T06:23:44;7.30;99.90
5429;DHT22;2737;52.386;9.980;2022-11-11T06:26:11;7.30;99.90
5429;DHT22;2737;52.386;9.980;2022-11-11T06:28:39;7.30;99.90
5429;DHT22;2737;52.386;9.980;2022-11-11T06:31:07;7.30;99.90
5429;DHT22;2737;52.386;9.980;2022-11-11T06:33:35;7.30;99.90
5429;DHT22;2737;52.386;9.980;2022-11-11T06:36:03;7.20;99.90
5429;DHT22;2737;52.386;9.980;2022-11-11T06:38:30;7.20;99.90
5429;DHT22;2737;52.386;9.980;2022-11-11T06:40:57;7.20;99.90
5429;DHT22;2737;52.386;9.980;2022-11-11T06:43:24;7.20;99.90
5429;DHT22;2737;52.386;9.980;2022-11-11T06:45:53;7.10;99.90
5429;DHT22;2737;52.386;9.980;2022-11-11T06:48:21;7.20;99.90
5429;DHT22;2737;52.386;9.980;2022-11-11T06:50:49;7.20;99.90
5429;DHT22;2737;52.386;9.980;2022-11-11T06:53:18;7.20;99.90
5429;DHT22;2737;52.386;9.980;2022-11-11T06:55:45;7.20;99.90
5429;DHT22;2737;52.386;9.980;2022-11-11T06:58:13;7.20;99.90
5429;DHT22;2737;52.386;9.980;2022-11-11T07:00:42;7.30;99.90
5429;DHT22;2737;52.386;9.980;2022-11-11T07:03:12;7.30;99.90
5429;DHT22;2737;52.386;9.980;2022-11-11T07:05:40;7.30;99.90
5429;DHT22;2737;52.386;9.980;2022-11-11T07:08:09;7.40;99.90
5429;DHT22;2737;52.386;9.980;2022-11-11T07:10:37;7.40;99.90
5429;DHT22;2737;52.386;9.980;2022-11-11T07:13:06;7.40;99.90
5429;DHT22;2737;52.386;9.980;2022-11-11T07:15:33;7.50;99.90
5429;DHT22;2737;52.386;9.980;2022-11-11T07:18:01;7.60;99.90
5429;DHT22;2737;52.386;9.980;2022-11-11T07:20:29;7.60;99.90
5429;DHT22;2737;52.386;9.980;2022-11-11T07:22:56;7.60;99.90
5429;DHT22;2737;52.386;9.980;2022-11-11T07:25:23;7.70;99.90
5429;DHT22;2737;52.386;9.980;2022-11-11T07:27:51;7.70;99.90
5429;DHT22;2737;52.386;9.980;2022-11-11T07:30:19;7.80;99.90
5429;DHT22;2737;52.386;9.980;2022-11-11T07:32:47;7.80;99.90
5429;DHT22;2737;52.386;9.980;2022-11-11T07:35:15;7.90;99.90
5429;DHT22;2737;52.386;9.980;2022-11-11T07:37:44;7.80;99.90
5429;DHT22;2737;52.386;9.980;2022-11-11T07:40:13;7.90;99.90
5429;DHT22;2737;52.386;9.980;2022-11-11T07:42:41;7.90;99.90
5429;DHT22;2737;52.386;9.980;2022-11-11T07:45:10;7.90;99.90
5429;DHT22;2737;52.386;9.980;2022-11-11T07:47:37;7.90;99.90
5429;DHT22;2737;52.386;9.980;2022-11-11T07:50:05;8.00;99.90
5429;DHT22;2737;52.386;9.980;2022-11-11T07:52:32;8.00;99.90
5429;DHT22;2737;52.386;9.980;2022-11-11T07:55:03;8.10;99.90
5429;DHT22;2737;52.386;9.980;2022-11-11T07:57:30;8.20;99.90
5429;DHT22;2737;52.386;9.980;2022-11-11T07:59:57;8.20;99.90
5429;DHT22;2737;52.386;9.980;2022-11-11T08:02:25;8.30;99.90
5429;DHT22;2737;52.386;9.980;2022-11-11T08:04:52;8.30;99.90
5429;DHT22;2737;52.386;9.980;2022-11-11T08:07:19;8.40;99.90
5429;DHT22;2737;52.386;9.980;2022-11-11T08:09:46;8.50;99.90
5429;DHT22;2737;52.386;9.980;2022-11-11T08:12:15;8.60;99.90
5429;DHT22;2737;52.386;9.980;2022-11-11T08:14:59;8.80;99.90
5429;DHT22;2737;52.386;9.980;2022-11-11T08:17:26;8.90;99.90
5429;DHT22;2737;52.386;9.980;2022-11-11T08:19:53;8.90;99.90
5429;DHT22;2737;52.386;9.980;2022-11-11T08:22:20;9.00;99.90
5429;DHT22;2737;52.386;9.980;2022-11-11T08:24:47;9.00;99.90
5429;DHT22;2737;52.386;9.980;2022-11-11T08:27:16;9.10;99.90
5429;DHT22;2737;52.386;9.980;2022-11-11T08:29:43;9.10;99.90
5429;DHT22;2737;52.386;9.980;2022-11-11T08:32:10;9.20;99.90
5429;DHT22;2737;52.386;9.980;2022-11-11T08:34:37;9.30;99.90
5429;DHT22;2737;52.386;9.980;2022-11-11T08:37:04;9.40;99.90
5429;DHT22;2737;52.386;9.980;2022-11-11T08:39:31;9.40;99.90
5429;DHT22;2737;52.386;9.980;2022-11-11T08:41:58;9.50;99.90
5429;DHT22;2737;52.386;9.980;2022-11-11T08:44:27;9.60;99.90
5429;DHT22;2737;52.386;9.980;2022-11-11T08:46:54;9.60;99.90
5429;DHT22;2737;52.386;9.980;2022-11-11T08:49:21;9.70;99.90
5429;DHT22;2737;52.386;9.980;2022-11-11T08:51:49;9.80;99.90
5429;DHT22;2737;52.386;9.980;2022-11-11T08:54:16;9.80;99.90
5429;DHT22;2737;52.386;9.980;2022-11-11T08:56:43;9.90;99.90
5429;DHT22;2737;52.386;9.980;2022-11-11T08:59:10;9.90;99.90
5429;DHT22;2737;52.386;9.980;2022-11-11T09:01:38;10.00;99.90
5429;DHT22;2737;52.386;9.980;2022-11-11T09:04:06;10.10;99.90
5429;DHT22;2737;52.386;9.980;2022-11-11T09:06:33;10.10;99.90
5429;DHT22;2737;52.386;9.980;2022-11-11T09:09:00;10.20;99.90
5429;DHT22;2737;52.386;9.980;2022-11-11T09:11:27;10.20;99.90
5429;DHT22;2737;52.386;9.980;2022-11-11T09:14:00;10.30;99.90
5429;DHT22;2737;52.386;9.980;2022-11-11T09:16:27;10.30;99.90
5429;DHT22;2737;52.386;9.980;2022-11-11T09:18:56;10.50;99.90
5429;DHT22;2737;52.386;9.980;2022-11-11T09:21:23;10.50;99.90
5429;DHT22;2737;52.386;9.980;2022-11-11T09:23:50;10.60;99.90
5429;DHT22;2737;52.386;9.980;2022-11-11T09:26:17;10.60;99.90
5429;DHT22;2737;52.386;9.980;2022-11-11T09:28:44;10.70;99.90
5429;DHT22;2737;52.386;9.980;2022-11-11T09:31:11;10.70;99.90
5429;DHT22;2737;52.386;9.980;2022-11-11T09:33:38;10.70;99.90
5429;DHT22;2737;52.386;9.980;2022-11-11T09:36:07;10.90;99.90
5429;DHT22;2737;52.386;9.980;2022-11-11T09:38:34;10.90;99.90
5429;DHT22;2737;52.386;9.980;2022-11-11T09:41:12;11.00;99.90
5429;DHT22;2737;52.386;9.980;2022-11-11T09:43:46;11.10;99.90
5429;DHT22;2737;52.386;9.980;2022-11-11T09:46:28;11.20;99.90
5429;DHT22;2737;52.386;9.980;2022-11-11T09:49:18;11.40;99.90
5429;DHT22;2737;52.386;9.980;2022-11-11T09:51:55;11.50;99.90
5429;DHT22;2737;52.386;9.980;2022-11-11T09:54:31;11.70;99.90
5429;DHT22;2737;52.386;9.980;2022-11-11T09:57:03;11.80;99.90
5429;DHT22;2737;52.386;9.980;2022-11-11T09:59:37;11.80;99.90
5429;DHT22;2737;52.386;9.980;2022-11-11T10:02:19;11.90;99.90
5429;DHT22;2737;52.386;9.980;2022-11-11T10:04:55;12.00;99.90
5429;DHT22;2737;52.386;9.980;2022-11-11T10:07:32;12.00;99.90
5429;DHT22;2737;52.386;9.980;2022-11-11T10:10:05;12.00;99.90
5429;DHT22;2737;52.386;9.980;2022-11-11T10:12:37;12.00;99.90
5429;DHT22;2737;52.386;9.980;2022-11-11T10:15:10;12.10;99.90
5429;DHT22;2737;52.386;9.980;2022-11-11T10:17:44;12.10;99.90
5429;DHT22;2737;52.386;9.980;2022-11-11T10:20:17;12.10;99.90
5429;DHT22;2737;52.386;9.980;2022-11-11T10:22:49;12.20;99.90
5429;DHT22;2737;52.386;9.980;2022-11-11T10:25:20;12.30;99.90
5429;DHT22;2737;52.386;9.980;2022-11-11T10:27:51;12.20;99.90
5429;DHT22;2737;52.386;9.980;2022-11-11T10:30:21;12.30;99.90
5429;DHT22;2737;52.386;9.980;2022-11-11T10:32:53;12.30;99.90
5429;DHT22;2737;52.386;9.980;2022-11-11T10:35:23;12.40;99.90
5429;DHT22;2737;52.386;9.980;2022-11-11T10:38:05;12.40;99.90
5429;DHT22;2737;52.386;9.980;2022-11-11T10:40:42;12.40;99.90
5429;DHT22;2737;52.386;9.980;2022-11-11T10:43:20;12.40;99.90
5429;DHT22;2737;52.386;9.980;2022-11-11T10:45:53;12.50;99.90
5429;DHT22;2737;52.386;9.980;2022-11-11T10:48:28;12.50;99.90
5429;DHT22;2737;52.386;9.980;2022-11-11T10:50:59;12.50;99.90
5429;DHT22;2737;52.386;9.980;2022-11-11T10:53:36;12.50;99.90
5429;DHT22;2737;52.386;9.980;2022-11-11T10:56:11;12.50;99.90
5429;DHT22;2737;52.386;9.980;2022-11-11T10:58:45;12.50;99.90
5429;DHT22;2737;52.386;9.980;2022-11-11T11:01:16;12.60;99.90
5429;DHT22;2737;52.386;9.980;2022-11-11T11:03:49;12.70;99.90
5429;DHT22;2737;52.386;9.980;2022-11-11T11:06:23;12.70;99.90
5429;DHT22;2737;52.386;9.980;2022-11-11T11:08:56;12.80;99.90
5429;DHT22;2737;52.386;9.980;2022-11-11T11:11:29;12.80;99.90
5429;DHT22;2737;52.386;9.980;2022-11-11T11:13:59;12.80;99.90
5429;DHT22;2737;52.386;9.980;2022-11-11T11:16:31;12.80;99.90
5429;DHT22;2737;52.386;9.980;2022-11-11T11:19:20;12.90;99.90
5429;DHT22;2737;52.386;9.980;2022-11-11T11:21:50;12.90;99.90
5429;DHT22;2737;52.386;9.980;2022-11-11T11:24:21;12.90;99.90
5429;DHT22;2737;52.386;9.980;2022-11-11T11:26:50;13.00;99.90
5429;DHT22;2737;52.386;9.980;2022-11-11T11:29:25;13.10;99.90
5429;DHT22;2737;52.386;9.980;2022-11-11T11:31:52;13.10;99.90
5429;DHT22;2737;52.386;9.980;2022-11-11T11:34:20;13.20;99.90
5429;DHT22;2737;52.386;9.980;2022-11-11T11:36:59;13.30;99.90
5429;DHT22;2737;52.386;9.980;2022-11-11T11:39:35;13.40;99.90
5429;DHT22;2737;52.386;9.980;2022-11-11T11:42:03;13.40;99.90
5429;DHT22;2737;52.386;9.980;2022-11-11T11:44:32;13.40;99.90
5429;DHT22;2737;52.386;9.980;2022-11-11T11:47:11;13.40;99.90
5429;DHT22;2737;52.386;9.980;2022-11-11T11:49:58;13.50;99.90
5429;DHT22;2737;52.386;9.980;2022-11-11T11:52:34;13.50;99.90
5429;DHT22;2737;52.386;9.980;2022-11-11T11:55:11;13.60;99.90
5429;DHT22;2737;52.386;9.980;2022-11-11T11:57:52;13.60;99.90
5429;DHT22;2737;52.386;9.980;2022-11-11T12:00:23;13.70;99.90
5429;DHT22;2737;52.386;9.980;2022-11-11T12:03:11;13.70;99.90
5429;DHT22;2737;52.386;9.980;2022-11-11T12:05:45;13.70;99.90
5429;DHT22;2737;52.386;9.980;2022-11-11T12:08:36;13.80;99.90
5429;DHT22;2737;52.386;9.980;2022-11-11T12:11:14;13.80;99.90
5429;DHT22;2737;52.386;9.980;2022-11-11T12:14:02;13.90;99.90
5429;DHT22;2737;52.386;9.980;2022-11-11T12:16:37;13.80;99.90
5429;DHT22;2737;52.386;9.980;2022-11-11T12:19:19;13.90;99.90
5429;DHT22;2737;52.386;9.980;2022-11-11T12:21:57;14.00;99.90
5429;DHT22;2737;52.386;9.980;2022-11-11T12:24:41;14.00;99.90
5429;DHT22;2737;52.386;9.980;2022-11-11T12:27:18;14.00;99.90
5429;DHT22;2737;52.386;9.980;2022-11-11T12:29:56;14.10;99.90
5429;DHT22;2737;52.386;9.980;2022-11-11T12:32:44;14.10;99.90
5429;DHT22;2737;52.386;9.980;2022-11-11T12:35:42;14.10;99.90
5429;DHT22;2737;52.386;9.980;2022-11-11T12:38:23;14.20;99.90
5429;DHT22;2737;52.386;9.980;2022-11-11T12:41:00;14.20;99.90
5429;DHT22;2737;52.386;9.980;2022-11-11T12:43:37;14.20;99.90
5429;DHT22;2737;52.386;9.980;2022-11-11T12:46:13;14.20;99.90
5429;DHT22;2737;52.386;9.980;2022-11-11T12:48:53;14.30;99.90
5429;DHT22;2737;52.386;9.980;2022-11-11T12:51:34;14.30;99.90
5429;DHT22;2737;52.386;9.980;2022-11-11T12:54:09;14.30;99.90
5429;DHT22;2737;52.386;9.980;2022-11-11T12:56:45;14.30;99.90
5429;DHT22;2737;52.386;9.980;2022-11-11T12:59:25;14.30;99.90
5429;DHT22;2737;52.386;9.980;2022-11-11T13:02:02;14.40;99.90
5429;DHT22;2737;52.386;9.980;2022-11-11T13:04:47;14.30;99.90
5429;DHT22;2737;52.386;9.980;2022-11-11T13:10:26;14.30;99.90
5429;DHT22;2737;52.386;9.980;2022-11-11T13:13:03;14.20;99.90
5429;DHT22;2737;52.386;9.980;2022-11-11T13:15:37;14.20;99.90
5429;DHT22;2737;52.386;9.980;2022-11-11T13:18:11;14.10;99.90
5429;DHT22;2737;52.386;9.980;2022-11-11T13:20:49;14.00;99.90
5429;DHT22;2737;52.386;9.980;2022-11-11T13:23:18;14.00;99.90
5429;DHT22;2737;52.386;9.980;2022-11-11T13:25:47;13.90;99.90
5429;DHT22;2737;52.386;9.980;2022-11-11T13:28:19;14.00;99.90
5429;DHT22;2737;52.386;9.980;2022-11-11T13:31:07;13.90;99.90
5429;DHT22;2737;52.386;9.980;2022-11-11T13:33:38;13.90;99.90
5429;DHT22;2737;52.386;9.980;2022-11-11T13:36:08;13.80;99.90
5429;DHT22;2737;52.386;9.980;2022-11-11T13:38:44;13.80;99.90
5429;DHT22;2737;52.386;9.980;2022-11-11T13:41:19;13.80;99.90
5429;DHT22;2737;52.386;9.980;2022-11-11T13:43:49;13.80;99.90
5429;DHT22;2737;52.386;9.980;2022-11-11T13:46:32;13.70;99.90
5429;DHT22;2737;52.386;9.980;2022-11-11T13:49:01;13.70;99.90
5429;DHT22;2737;52.386;9.980;2022-11-11T13:51:33;13.80;99.90
5429;DHT22;2737;52.386;9.980;2022-11-11T13:54:01;13.80;99.90
5429;DHT22;2737;52.386;9.980;2022-11-11T13:56:35;13.80;99.90
5429;DHT22;2737;52.386;9.980;2022-11-11T13:59:02;13.80;99.90
5429;DHT22;2737;52.386;9.980;2022-11-11T14:01:38;13.70;99.90
5429;DHT22;2737;52.386;9.980;2022-11-11T14:04:06;13.70;99.90
5429;DHT22;2737;52.386;9.980;2022-11-11T14:06:52;13.70;99.90
5429;DHT22;2737;52.386;9.980;2022-11-11T14:09:54;13.70;99.90
5429;DHT22;2737;52.386;9.980;2022-11-11T14:12:38;13.70;99.90
5429;DHT22;2737;52.386;9.980;2022-11-11T14:15:38;13.60;99.90
5429;DHT22;2737;52.386;9.980;2022-11-11T14:18:10;13.60;99.90
5429;DHT22;2737;52.386;9.980;2022-11-11T14:20:55;13.60;99.90
5429;DHT22;2737;52.386;9.980;2022-11-11T14:23:31;13.50;99.90
5429;DHT22;2737;52.386;9.980;2022-11-11T14:26:23;13.50;99.90
5429;DHT22;2737;52.386;9.980;2022-11-11T14:28:58;13.40;99.90
5429;DHT22;2737;52.386;9.980;2022-11-11T14:31:58;13.50;99.90
5429;DHT22;2737;52.386;9.980;2022-11-11T14:34:48;13.50;99.90
5429;DHT22;2737;52.386;9.980;2022-11-11T14:37:25;13.40;99.90
5429;DHT22;2737;52.386;9.980;2022-11-11T14:39:55;13.40;99.90
5429;DHT22;2737;52.386;9.980;2022-11-11T14:42:45;13.40;99.90
5429;DHT22;2737;52.386;9.980;2022-11-11T14:48:48;13.30;99.90
5429;DHT22;2737;52.386;9.980;2022-11-11T14:51:38;13.30;99.90
5429;DHT22;2737;52.386;9.980;2022-11-11T14:57:06;13.30;99.90
5429;DHT22;2737;52.386;9.980;2022-11-11T14:59:35;13.20;99.90
5429;DHT22;2737;52.386;9.980;2022-11-11T15:02:11;13.20;99.90
5429;DHT22;2737;52.386;9.980;2022-11-11T15:04:41;13.20;99.90
5429;DHT22;2737;52.386;9.980;2022-11-11T15:07:22;13.20;99.90
5429;DHT22;2737;52.386;9.980;2022-11-11T15:10:17;13.20;99.90
5429;DHT22;2737;52.386;9.980;2022-11-11T15:12:58;13.10;99.90
5429;DHT22;2737;52.386;9.980;2022-11-11T15:15:31;13.10;99.90
5429;DHT22;2737;52.386;9.980;2022-11-11T15:18:15;13.00;99.90
5429;DHT22;2737;52.386;9.980;2022-11-11T15:20:55;13.00;99.90
5429;DHT22;2737;52.386;9.980;2022-11-11T15:23:31;12.90;99.90
5429;DHT22;2737;52.386;9.980;2022-11-11T15:26:06;12.90;99.90
5429;DHT22;2737;52.386;9.980;2022-11-11T15:29:00;12.80;99.90
5429;DHT22;2737;52.386;9.980;2022-11-11T15:31:34;12.80;99.90
5429;DHT22;2737;52.386;9.980;2022-11-11T15:34:16;12.80;99.90
5429;DHT22;2737;52.386;9.980;2022-11-11T15:36:53;12.70;99.90
5429;DHT22;2737;52.386;9.980;2022-11-11T15:39:25;12.70;99.90
5429;DHT22;2737;52.386;9.980;2022-11-11T15:41:53;12.60;99.90
5429;DHT22;2737;52.386;9.980;2022-11-11T15:44:23;12.60;99.90
5429;DHT22;2737;52.386;9.980;2022-11-11T15:46:51;12.50;99.90
5429;DHT22;2737;52.386;9.980;2022-11-11T15:49:40;12.50;99.90
5429;DHT22;2737;52.386;9.980;2022-11-11T15:52:26;12.40;99.90
5429;DHT22;2737;52.386;9.980;2022-11-11T15:54:57;12.40;99.90
5429;DHT22;2737;52.386;9.980;2022-11-11T15:57:26;12.40;99.90
5429;DHT22;2737;52.386;9.980;2022-11-11T15:59:54;12.40;99.90
5429;DHT22;2737;52.386;9.980;2022-11-11T16:02:22;12.30;99.90
5429;DHT22;2737;52.386;9.980;2022-11-11T16:04:54;12.20;99.90
5429;DHT22;2737;52.386;9.980;2022-11-11T16:07:24;12.20;99.90
5429;DHT22;2737;52.386;9.980;2022-11-11T16:09:55;12.10;99.90
5429;DHT22;2737;52.386;9.980;2022-11-11T16:12:27;12.00;99.90
5429;DHT22;2737;52.386;9.980;2022-11-11T16:14:57;12.00;99.90
5429;DHT22;2737;52.386;9.980;2022-11-11T16:17:29;12.00;99.90
5429;DHT22;2737;52.386;9.980;2022-11-11T16:19:57;12.00;99.90
5429;DHT22;2737;52.386;9.980;2022-11-11T16:22:27;11.90;99.90
5429;DHT22;2737;52.386;9.980;2022-11-11T16:24:55;11.90;99.90
5429;DHT22;2737;52.386;9.980;2022-11-11T16:27:27;11.80;99.90
5429;DHT22;2737;52.386;9.980;2022-11-11T16:29:54;11.80;99.90
5429;DHT22;2737;52.386;9.980;2022-11-11T16:32:34;11.80;99.90
5429;DHT22;2737;52.386;9.980;2022-11-11T16:35:01;11.80;99.90
5429;DHT22;2737;52.386;9.980;2022-11-11T16:37:28;11.70;99.90
5429;DHT22;2737;52.386;9.980;2022-11-11T16:40:26;11.70;99.90
5429;DHT22;2737;52.386;9.980;2022-11-11T16:43:18;11.70;99.90
5429;DHT22;2737;52.386;9.980;2022-11-11T16:45:47;11.60;99.90
5429;DHT22;2737;52.386;9.980;2022-11-11T16:48:34;11.50;99.90
5429;DHT22;2737;52.386;9.980;2022-11-11T16:51:06;11.50;99.90
5429;DHT22;2737;52.386;9.980;2022-11-11T16:53:36;11.50;99.90
5429;DHT22;2737;52.386;9.980;2022-11-11T16:56:07;11.40;99.90